createdAt,value
2022-08-04T00:02:28.076Z,2.83
2022-08-04T00:05:01.384Z,2.47
2022-08-04T00:07:44.225Z,3.95
2022-08-04T00:10:12.624Z,2.58
2022-08-04T00:12:45.410Z,2.40
2022-08-04T00:15:16.427Z,2.45
2022-08-04T00:17:46.497Z,3.05
2022-08-04T00:20:18.444Z,3.28
2022-08-04T00:22:46.208Z,3.50
2022-08-04T00:25:12.784Z,2.45
2022-08-04T00:27:39.377Z,2.45
2022-08-04T00:30:07.218Z,2.90
2022-08-04T00:32:34.909Z,3.95
2022-08-04T00:35:01.753Z,2.55
2022-08-04T00:37:28.350Z,2.28
2022-08-04T00:39:55.750Z,2.67
2022-08-04T00:42:35.423Z,3.33
2022-08-04T00:45:26.013Z,2.63
2022-08-04T00:48:31.248Z,3.88
2022-08-04T00:51:03.646Z,2.58
2022-08-04T00:53:49.968Z,2.65
2022-08-04T00:56:28.850Z,2.47
2022-08-04T00:59:18.103Z,2.97
2022-08-04T01:02:00.743Z,3.03
2022-08-04T01:04:42.618Z,2.92
2022-08-04T01:07:18.104Z,2.90
2022-08-04T01:09:56.007Z,2.92
2022-08-04T01:12:31.629Z,3.80
2022-08-04T01:15:08.090Z,3.17
2022-08-04T01:17:46.827Z,3.88
2022-08-04T01:20:18.495Z,2.60
2022-08-04T01:23:12.562Z,2.97
2022-08-04T01:26:42.151Z,4.30
2022-08-04T01:29:13.585Z,3.15
2022-08-04T01:31:42.659Z,5.05
2022-08-04T01:34:12.756Z,3.22
2022-08-04T01:36:45.387Z,2.97
2022-08-04T01:39:36.003Z,2.60
2022-08-04T01:42:04.380Z,3.92
2022-08-04T01:44:31.130Z,3.33
2022-08-04T01:46:57.989Z,3.03
2022-08-04T01:49:29.956Z,2.45
2022-08-04T01:52:08.710Z,2.88
2022-08-04T01:54:38.132Z,2.92
2022-08-04T01:57:36.807Z,3.00
2022-08-04T01:59:53.471Z,2.83
2022-08-04T02:02:24.488Z,2.80
2022-08-04T02:04:51.338Z,4.28
2022-08-04T02:07:41.511Z,2.78
2022-08-04T02:10:24.600Z,2.95
2022-08-04T02:13:15.884Z,3.00
2022-08-04T02:15:45.411Z,3.08
2022-08-04T02:18:26.703Z,3.30
2022-08-04T02:21:01.708Z,2.83
2022-08-04T02:23:34.483Z,3.03
2022-08-04T02:26:07.462Z,2.78
2022-08-04T02:29:00.199Z,2.92
2022-08-04T02:31:33.785Z,3.57
2022-08-04T02:34:10.094Z,3.45
2022-08-04T02:36:41.127Z,2.75
2022-08-04T02:39:10.333Z,3.53
2022-08-04T02:41:37.876Z,2.72
2022-08-04T02:44:06.687Z,2.75
2022-08-04T02:46:34.680Z,3.22
2022-08-04T02:49:09.667Z,3.15
2022-08-04T02:51:38.578Z,2.63
2022-08-04T02:54:06.587Z,3.10
2022-08-04T02:56:34.986Z,3.50
2022-08-04T02:59:11.967Z,3.50
2022-08-04T03:01:56.869Z,3.25
2022-08-04T03:04:45.681Z,3.80
2022-08-04T03:07:30.627Z,3.15
2022-08-04T03:10:35.796Z,3.53
2022-08-04T03:13:26.969Z,3.50
2022-08-04T03:16:20.664Z,2.75
2022-08-04T03:18:59.226Z,4.18
2022-08-04T03:21:34.524Z,3.70
2022-08-04T03:24:20.058Z,4.65
2022-08-04T03:26:56.209Z,2.85
2022-08-04T03:29:56.711Z,3.50
2022-08-04T03:32:38.276Z,2.65
2022-08-04T03:35:23.032Z,3.28
2022-08-04T03:38:21.257Z,3.30
2022-08-04T03:41:09.511Z,3.13
2022-08-04T03:44:23.678Z,2.53
2022-08-04T03:47:20.948Z,3.60
2022-08-04T03:50:06.352Z,2.67
2022-08-04T03:52:51.642Z,3.17
2022-08-04T03:55:25.560Z,3.45
2022-08-04T03:57:58.343Z,4.07
2022-08-04T04:00:31.548Z,3.53
2022-08-04T04:03:29.111Z,2.78
2022-08-04T04:08:43.352Z,3.45
2022-08-04T04:11:54.210Z,3.38
2022-08-04T04:14:43.696Z,2.38
2022-08-04T04:17:31.198Z,3.63
2022-08-04T04:20:03.690Z,3.67
2022-08-04T04:22:36.630Z,4.43
2022-08-04T04:25:37.192Z,3.13
2022-08-04T04:28:44.599Z,3.25
2022-08-04T04:31:49.296Z,3.13
2022-08-04T04:34:34.602Z,3.88
2022-08-04T04:37:26.073Z,3.47
2022-08-04T04:40:15.932Z,3.45
2022-08-04T04:43:17.937Z,3.47
2022-08-04T04:46:21.176Z,3.15
2022-08-04T04:48:53.748Z,3.63
2022-08-04T04:51:31.593Z,2.40
2022-08-04T04:54:09.006Z,3.58
2022-08-04T04:56:48.037Z,3.22
2022-08-04T04:59:17.178Z,4.15
2022-08-04T05:02:19.289Z,2.78
2022-08-04T05:05:03.866Z,3.17
2022-08-04T05:08:44.401Z,3.53
2022-08-04T05:11:25.831Z,3.70
2022-08-04T05:16:47.259Z,3.75
2022-08-04T05:19:29.156Z,2.83
2022-08-04T05:22:04.580Z,3.58
2022-08-04T05:24:35.047Z,3.10
2022-08-04T05:27:06.468Z,3.45
2022-08-04T05:29:36.605Z,2.95
2022-08-04T05:32:12.847Z,3.58
2022-08-04T05:34:42.342Z,3.63
2022-08-04T05:37:11.347Z,3.35
2022-08-04T05:39:47.091Z,2.80
2022-08-04T05:42:14.457Z,2.67
2022-08-04T05:44:45.341Z,2.92
2022-08-04T05:47:15.626Z,2.75
2022-08-04T05:49:42.646Z,3.08
2022-08-04T05:52:10.632Z,2.53
2022-08-04T05:54:38.809Z,2.50
2022-08-04T05:59:33.009Z,3.08
2022-08-04T06:02:00.852Z,2.58
2022-08-04T06:04:36.283Z,2.60
2022-08-04T06:07:03.446Z,2.63
2022-08-04T06:09:30.506Z,3.20
2022-08-04T06:12:03.653Z,2.38
2022-08-04T06:14:38.737Z,2.83
2022-08-04T06:18:33.949Z,2.45
2022-08-04T06:20:00.537Z,3.53
2022-08-04T06:22:33.500Z,2.70
2022-08-04T06:25:01.757Z,2.72
2022-08-04T06:27:29.915Z,3.05
2022-08-04T06:32:41.427Z,2.78
2022-08-04T06:35:09.093Z,2.67
2022-08-04T06:37:42.629Z,2.63
2022-08-04T06:40:31.783Z,2.70
2022-08-04T06:43:00.772Z,3.17
2022-08-04T06:47:54.728Z,2.50
2022-08-04T06:51:24.373Z,2.55
2022-08-04T06:53:08.079Z,3.35
2022-08-04T06:55:34.673Z,3.20
2022-08-04T06:58:03.455Z,3.08
2022-08-04T07:00:31.368Z,2.83
2022-08-04T07:02:58.746Z,3.25
2022-08-04T07:05:25.424Z,2.78
2022-08-04T07:07:57.898Z,3.05
2022-08-04T07:10:28.178Z,2.70
2022-08-04T07:12:59.036Z,2.65
2022-08-04T07:15:26.346Z,2.70
2022-08-04T07:17:54.169Z,2.78
2022-08-04T07:20:33.863Z,2.50
2022-08-04T07:23:02.010Z,2.63
2022-08-04T07:25:28.904Z,2.85
2022-08-04T07:28:15.282Z,2.58
2022-08-04T07:30:44.425Z,2.67
2022-08-04T07:33:11.518Z,2.50
2022-08-04T07:36:05.353Z,2.78
2022-08-04T07:38:27.611Z,2.58
2022-08-04T07:40:55.417Z,3.05
2022-08-04T07:43:22.493Z,2.55
2022-08-04T07:45:49.077Z,3.50
2022-08-04T07:48:18.823Z,2.60
2022-08-04T07:50:45.962Z,2.40
2022-08-04T07:53:53.197Z,2.70
2022-08-04T07:56:00.598Z,2.33
2022-08-04T07:58:30.098Z,2.87
2022-08-04T08:00:57.797Z,2.70
2022-08-04T08:03:25.491Z,2.70
2022-08-04T08:06:16.836Z,2.67
2022-08-04T08:08:40.095Z,2.77
2022-08-04T08:11:10.927Z,2.65
2022-08-04T08:13:37.948Z,2.75
2022-08-04T08:16:05.710Z,2.88
2022-08-04T08:18:32.476Z,2.85
2022-08-04T08:20:59.242Z,2.38
2022-08-04T08:23:26.555Z,2.72
2022-08-04T08:25:53.177Z,3.30
2022-08-04T08:28:19.724Z,3.05
2022-08-04T08:30:46.235Z,2.58
2022-08-04T08:33:20.734Z,3.10
2022-08-04T08:35:53.655Z,2.92
2022-08-04T08:38:27.926Z,3.20
2022-08-04T08:40:59.225Z,3.25
2022-08-04T08:44:05.342Z,2.33
2022-08-04T08:46:49.643Z,2.70
2022-08-04T08:50:02.102Z,2.60
2022-08-04T08:53:00.668Z,2.30
2022-08-04T08:55:47.012Z,2.90
2022-08-04T08:58:42.604Z,2.58
2022-08-04T09:01:24.406Z,3.03
2022-08-04T09:04:23.751Z,2.53
2022-08-04T09:07:00.432Z,2.60
2022-08-04T09:09:36.522Z,2.53
2022-08-04T09:12:07.538Z,2.70
2022-08-04T09:14:48.470Z,3.00
2022-08-04T09:17:36.339Z,2.67
2022-08-04T09:20:24.077Z,2.30
2022-08-04T09:26:04.822Z,2.17
2022-08-04T09:28:53.723Z,2.40
2022-08-04T09:31:23.658Z,2.50
2022-08-04T09:34:28.072Z,2.63
2022-08-04T09:37:13.209Z,3.20
2022-08-04T09:39:51.952Z,2.83
2022-08-04T09:42:26.100Z,2.65
2022-08-04T09:45:06.150Z,2.40
2022-08-04T09:47:55.770Z,2.50
2022-08-04T09:50:45.823Z,2.55
2022-08-04T09:53:31.267Z,2.65
2022-08-04T09:56:32.882Z,2.30
2022-08-04T09:59:25.438Z,2.65
2022-08-04T10:01:59.939Z,2.50
2022-08-04T10:04:29.544Z,2.20
2022-08-04T10:07:18.693Z,1.88
2022-08-04T10:09:50.658Z,1.98
2022-08-04T10:12:29.327Z,2.28
2022-08-04T10:15:11.729Z,1.90
2022-08-04T10:17:54.756Z,1.67
2022-08-04T10:21:00.033Z,2.10
2022-08-04T10:24:20.658Z,1.45
2022-08-04T10:26:57.223Z,1.73
2022-08-04T10:29:44.152Z,1.67
2022-08-04T10:32:17.109Z,2.00
2022-08-04T10:34:55.135Z,2.10
2022-08-04T10:37:59.007Z,2.10
2022-08-04T10:40:46.950Z,1.83
2022-08-04T10:43:32.629Z,1.60
2022-08-04T10:46:07.895Z,1.60
2022-08-04T10:48:51.547Z,1.60
2022-08-04T10:51:30.188Z,1.70
2022-08-04T10:54:45.251Z,2.35
2022-08-04T10:57:16.793Z,2.33
2022-08-04T10:59:58.927Z,1.80
2022-08-04T11:02:48.878Z,2.05
2022-08-04T11:05:52.458Z,1.80
2022-08-04T11:08:39.706Z,1.80
2022-08-04T11:11:13.712Z,1.92
2022-08-04T11:13:49.960Z,2.17
2022-08-04T11:16:54.145Z,1.80
2022-08-04T11:19:44.976Z,2.08
2022-08-04T11:22:23.355Z,1.67
2022-08-04T11:24:54.126Z,1.60
2022-08-04T11:27:37.672Z,1.70
2022-08-04T11:30:09.868Z,1.55
2022-08-04T11:33:03.679Z,2.03
2022-08-04T11:35:52.825Z,1.77
2022-08-04T11:38:29.177Z,1.63
2022-08-04T11:41:03.147Z,1.48
2022-08-04T11:44:03.141Z,1.40
2022-08-04T11:46:38.622Z,2.03
2022-08-04T11:49:12.035Z,1.55
2022-08-04T11:51:39.400Z,1.70
2022-08-04T11:54:06.134Z,1.52
2022-08-04T11:56:36.867Z,1.60
2022-08-04T11:59:07.636Z,1.80
2022-08-04T12:01:58.877Z,1.55
2022-08-04T12:04:47.421Z,1.15
2022-08-04T12:07:30.496Z,1.75
2022-08-04T12:10:41.379Z,1.45
2022-08-04T12:13:23.778Z,1.50
2022-08-04T12:15:58.133Z,2.08
2022-08-04T12:18:33.586Z,2.30
2022-08-04T12:21:09.829Z,1.48
2022-08-04T12:23:40.397Z,1.50
2022-08-04T12:26:09.442Z,1.50
2022-08-04T12:29:07.281Z,1.85
2022-08-04T12:31:27.823Z,1.35
2022-08-04T12:34:04.946Z,1.52
2022-08-04T12:36:39.607Z,1.45
2022-08-04T12:39:13.075Z,1.60
2022-08-04T12:41:52.176Z,1.52
2022-08-04T12:44:36.638Z,1.30
2022-08-04T12:47:36.198Z,1.75
2022-08-04T12:50:00.811Z,1.50
2022-08-04T12:52:51.634Z,1.50
2022-08-04T12:55:15.668Z,1.75
2022-08-04T12:57:42.929Z,1.75
2022-08-04T13:00:10.943Z,1.25
2022-08-04T13:02:41.926Z,0.93
2022-08-04T13:05:09.745Z,1.23
2022-08-04T13:07:48.057Z,1.42
2022-08-04T13:10:18.280Z,1.25
2022-08-04T13:12:52.944Z,1.50
2022-08-04T13:15:22.077Z,1.15
2022-08-04T13:17:59.209Z,1.40
2022-08-04T13:20:37.570Z,0.85
2022-08-04T13:23:11.971Z,1.30
2022-08-04T13:26:45.099Z,1.00
2022-08-04T13:28:36.842Z,1.30
2022-08-04T13:31:12.705Z,1.63
2022-08-04T13:33:41.855Z,1.52
2022-08-04T13:36:09.316Z,1.10
2022-08-04T13:38:44.948Z,1.13
2022-08-04T13:41:11.727Z,1.10
2022-08-04T13:44:15.695Z,1.17
2022-08-04T13:46:32.710Z,1.05
2022-08-04T13:49:28.275Z,1.30
2022-08-04T13:51:57.350Z,1.50
2022-08-04T13:54:27.259Z,1.25
2022-08-04T13:57:00.050Z,1.42
2022-08-04T13:59:28.564Z,1.60
2022-08-04T14:02:01.707Z,1.40
2022-08-04T14:04:29.220Z,1.35
2022-08-04T14:07:03.451Z,1.65
2022-08-04T14:09:34.801Z,1.40
2022-08-04T14:12:45.812Z,1.70
2022-08-04T14:15:01.902Z,1.83
2022-08-04T14:17:29.857Z,1.95
2022-08-04T14:19:57.346Z,1.45
2022-08-04T14:22:26.790Z,1.40
2022-08-04T14:25:04.543Z,1.67
2022-08-04T14:27:47.837Z,1.83
2022-08-04T14:30:23.902Z,1.52
2022-08-04T14:34:02.598Z,1.65
2022-08-04T14:36:03.868Z,1.58
2022-08-04T14:38:46.795Z,1.50
2022-08-04T14:41:15.008Z,1.67
2022-08-04T14:43:54.208Z,1.45
2022-08-04T14:46:22.413Z,1.73
2022-08-04T14:49:12.842Z,2.15
2022-08-04T14:51:45.260Z,2.50
2022-08-04T14:54:18.038Z,1.88
2022-08-04T14:56:53.371Z,2.83
2022-08-04T14:59:19.966Z,2.00
2022-08-04T15:02:01.022Z,2.95
2022-08-04T15:04:29.545Z,2.60
2022-08-04T15:06:56.220Z,3.08
2022-08-04T15:09:23.155Z,2.13
2022-08-04T15:11:49.738Z,2.70
2022-08-04T15:14:36.367Z,2.47
2022-08-04T15:17:04.016Z,2.67
2022-08-04T15:19:31.842Z,2.45
2022-08-04T15:22:00.891Z,2.55
2022-08-04T15:24:27.424Z,2.47
2022-08-04T15:26:56.407Z,2.67
2022-08-04T15:29:30.826Z,2.78
2022-08-04T15:32:17.917Z,2.90
2022-08-04T15:34:49.048Z,2.50
2022-08-04T15:37:19.422Z,2.53
2022-08-04T15:39:53.936Z,2.08
2022-08-04T15:42:32.650Z,2.83
2022-08-04T15:45:13.681Z,2.42
2022-08-04T15:47:40.385Z,2.88
2022-08-04T15:50:12.614Z,2.90
2022-08-04T15:53:10.508Z,3.00
2022-08-04T15:55:42.136Z,2.30
2022-08-04T15:58:11.856Z,2.78
2022-08-04T16:00:50.502Z,2.35
2022-08-04T16:03:57.920Z,2.50
2022-08-04T16:11:48.946Z,2.28
2022-08-04T16:14:15.479Z,2.50
2022-08-04T16:16:49.909Z,2.72
2022-08-04T16:19:43.713Z,1.92
2022-08-04T16:22:11.365Z,3.65
2022-08-04T16:24:40.223Z,3.30
2022-08-04T16:27:08.338Z,2.47
2022-08-04T16:30:14.271Z,2.13
2022-08-04T16:32:43.417Z,2.80
2022-08-04T16:35:27.477Z,2.22
2022-08-04T16:38:14.696Z,2.35
2022-08-04T16:40:45.706Z,2.00
2022-08-04T16:43:14.669Z,2.33
2022-08-04T16:45:49.535Z,2.25
2022-08-04T16:48:17.978Z,2.20
2022-08-04T16:50:49.977Z,3.10
2022-08-04T16:54:03.769Z,2.33
2022-08-04T16:56:06.148Z,2.10
2022-08-04T16:58:36.785Z,2.13
2022-08-04T17:01:21.843Z,2.45
2022-08-04T17:04:04.696Z,2.17
2022-08-04T17:06:39.078Z,2.00
2022-08-04T17:09:09.693Z,1.95
2022-08-04T17:11:36.295Z,2.00
2022-08-04T17:14:05.775Z,2.58
2022-08-04T17:16:38.099Z,2.03
2022-08-04T17:19:05.630Z,2.08
2022-08-04T17:21:34.318Z,2.28
2022-08-04T17:24:16.307Z,2.42
2022-08-04T17:26:51.970Z,3.15
2022-08-04T17:29:21.889Z,2.45
2022-08-04T17:31:48.439Z,2.15
2022-08-04T17:34:19.263Z,1.90
2022-08-04T17:36:47.732Z,2.72
2022-08-04T17:39:22.334Z,2.00
2022-08-04T17:41:55.902Z,2.03
2022-08-04T17:44:36.423Z,2.13
2022-08-04T17:47:18.071Z,1.90
2022-08-04T17:49:53.236Z,2.10
2022-08-04T17:52:39.622Z,2.17
2022-08-04T17:55:16.283Z,2.00
2022-08-04T17:57:52.359Z,2.10
2022-08-04T18:00:19.958Z,1.80
2022-08-04T18:02:53.494Z,2.83
2022-08-04T18:05:50.185Z,1.70
2022-08-04T18:08:45.450Z,2.83
2022-08-04T18:13:28.729Z,1.83
2022-08-04T18:16:05.884Z,1.50
2022-08-04T18:18:39.274Z,1.58
2022-08-04T18:21:05.931Z,1.98
2022-08-04T18:23:33.382Z,1.50
2022-08-04T18:26:02.243Z,3.00
2022-08-04T18:28:30.912Z,1.90
2022-08-04T18:30:59.996Z,2.08
2022-08-04T18:36:34.973Z,1.60
2022-08-04T18:39:13.440Z,1.95
2022-08-04T18:42:02.499Z,1.75
2022-08-04T18:50:58.918Z,1.83
2022-08-04T18:52:30.783Z,1.98
2022-08-04T18:54:57.352Z,2.10
2022-08-04T18:57:59.658Z,2.10
2022-08-04T19:00:16.237Z,1.83
2022-08-04T19:02:46.457Z,1.85
2022-08-04T19:05:17.329Z,1.50
2022-08-04T19:08:01.665Z,1.80
2022-08-04T19:10:29.314Z,1.80
2022-08-04T19:12:56.103Z,1.80
2022-08-04T19:15:22.709Z,1.60
2022-08-04T19:18:01.094Z,1.80
2022-08-04T19:20:29.461Z,2.37
2022-08-04T19:24:28.584Z,2.00
2022-08-04T19:26:02.754Z,1.77
2022-08-04T19:28:34.861Z,1.90
2022-08-04T19:31:07.692Z,1.83
2022-08-04T19:33:59.136Z,1.85
2022-08-04T19:36:27.576Z,1.73
2022-08-04T19:38:55.679Z,1.80
2022-08-04T19:41:22.521Z,1.50
2022-08-04T19:43:52.937Z,1.90
2022-08-04T19:46:19.909Z,1.83
2022-08-04T19:48:59.371Z,2.13
2022-08-04T19:51:28.740Z,2.30
2022-08-04T19:56:41.798Z,2.00
2022-08-04T19:59:11.258Z,2.42
2022-08-04T20:01:44.102Z,2.55
2022-08-04T20:04:12.601Z,1.98
2022-08-04T20:06:39.415Z,2.92
2022-08-04T20:09:24.786Z,2.00
2022-08-04T20:11:53.114Z,1.92
2022-08-04T20:14:20.105Z,3.03
2022-08-04T20:16:58.810Z,2.38
2022-08-04T20:19:25.759Z,2.10
2022-08-04T20:21:56.393Z,2.72
2022-08-04T20:24:40.204Z,2.42
2022-08-04T20:27:14.654Z,2.90
2022-08-04T20:29:48.542Z,2.78
2022-08-04T20:32:20.115Z,2.33
2022-08-04T20:34:49.396Z,3.30
2022-08-04T20:37:18.249Z,3.70
2022-08-04T20:39:44.784Z,4.00
2022-08-04T20:42:27.751Z,4.88
2022-08-04T20:45:00.407Z,4.57
2022-08-04T20:47:35.191Z,3.88
2022-08-04T20:50:14.796Z,4.05
2022-08-04T20:52:43.591Z,4.82
2022-08-04T20:55:10.823Z,4.40
2022-08-04T21:00:29.932Z,4.50
2022-08-04T21:02:58.135Z,4.15
2022-08-04T21:05:24.602Z,3.40
2022-08-04T21:07:56.650Z,3.42
2022-08-04T21:10:24.498Z,3.58
2022-08-04T21:12:52.721Z,3.15
2022-08-04T21:15:24.940Z,3.97
2022-08-04T21:17:58.870Z,3.67
2022-08-04T21:20:32.181Z,3.40
2022-08-04T21:23:01.770Z,3.25
2022-08-04T21:25:29.430Z,3.45
2022-08-04T21:27:58.471Z,3.72
2022-08-04T21:30:26.653Z,3.88
2022-08-04T21:32:55.159Z,4.80
2022-08-04T21:35:22.826Z,4.00
2022-08-04T21:38:03.712Z,5.22
2022-08-04T21:40:36.930Z,4.20
2022-08-04T21:43:05.634Z,4.45
2022-08-04T21:45:36.273Z,4.10
2022-08-04T21:48:03.339Z,4.90
2022-08-04T21:50:31.118Z,5.13
2022-08-04T21:52:58.947Z,5.07
2022-08-04T21:56:04.848Z,5.40
2022-08-04T21:58:13.370Z,4.70
2022-08-04T22:00:40.499Z,5.10
2022-08-04T22:03:18.666Z,5.32
2022-08-04T22:05:55.410Z,5.30
2022-08-04T22:08:22.520Z,5.35
2022-08-04T22:10:50.183Z,4.95
2022-08-04T22:13:22.700Z,6.30
2022-08-04T22:16:04.768Z,4.90
2022-08-04T22:18:32.203Z,5.57
2022-08-04T22:21:04.120Z,5.70
2022-08-04T22:23:45.269Z,5.38
2022-08-04T22:26:20.248Z,5.55
2022-08-04T22:28:53.873Z,4.35
2022-08-04T22:31:23.303Z,4.68
2022-08-04T22:33:54.482Z,4.40
2022-08-04T22:36:22.204Z,3.92
2022-08-04T22:38:57.056Z,4.18
2022-08-04T22:41:33.737Z,3.47
2022-08-04T22:44:01.070Z,3.40
2022-08-04T22:46:30.055Z,4.30
2022-08-04T22:48:57.036Z,3.40
2022-08-04T22:51:27.267Z,3.47
2022-08-04T22:53:54.693Z,3.22
2022-08-04T22:56:38.572Z,3.20
2022-08-04T22:59:06.626Z,2.80
2022-08-04T23:01:59.535Z,3.53
2022-08-04T23:04:23.292Z,2.70
2022-08-04T23:06:50.126Z,3.63
2022-08-04T23:09:17.101Z,2.25
2022-08-04T23:11:43.937Z,2.75
2022-08-04T23:14:10.702Z,2.63
2022-08-04T23:16:40.630Z,2.05
2022-08-04T23:19:11.995Z,2.78
2022-08-04T23:21:40.977Z,2.05
2022-08-04T23:24:13.729Z,3.40
2022-08-04T23:26:40.280Z,1.67
2022-08-04T23:29:08.145Z,2.00
2022-08-04T23:31:40.573Z,2.35
2022-08-04T23:34:08.629Z,2.22
2022-08-04T23:36:35.158Z,2.75
2022-08-04T23:39:06.339Z,2.15
2022-08-04T23:41:54.616Z,2.53
2022-08-04T23:44:25.478Z,2.40
2022-08-04T23:47:02.723Z,2.85
2022-08-04T23:49:43.182Z,2.95
2022-08-04T23:52:23.521Z,2.60
2022-08-04T23:54:58.398Z,2.83
2022-08-04T23:57:25.792Z,2.63
